Flight Track Log - Related Links

Times and Time Zones

All times are in EDT time to prevent confusion due to time zone crossing. See the ETD266 flight status page for this flight to view local times or setup timezone preferences in your user account.

Time Position Orientation Groundspeed Altitude Reporting Facility
EDT Latitude Longitude Course Direction KTS MPH feet Rate Location/Type
Tue 02:28:56 PM 24.4350 54.6480 217° Southwest 165 190  Level FlightAware ADS-B
Tue 02:29:16 PM 24.4450 54.6340 308° West 167 192 1,000 2,700 Climbing FlightAware ADS-B
Tue 02:29:36 PM 24.4540 54.6210 307° West 165 190 1,800 1,543 Climbing FlightAware ADS-B
Tue 02:29:51 PM 24.4620 54.6100 309° West 188 216 1,900 686 Climbing FlightAware ADS-B
Tue 02:30:11 PM 24.4740 54.5930 308° West 206 237 2,200 1,029 Climbing FlightAware ADS-B
Tue 02:30:26 PM 24.4880 54.5850 333° Northwest 230 265 2,500 1,200 Climbing FlightAware ADS-B
Tue 02:30:31 PM 24.4930 54.5850 360° North 228 262 2,600 1,600 Climbing FlightAware ADS-B
Tue 02:30:41 PM 24.5040 54.5880 14° North 235 270 2,900 2,100 Climbing FlightAware ADS-B
Tue 02:30:51 PM 24.5130 54.5960 39° Northeast 242 278 3,300 1,920 Climbing FlightAware ADS-B
Tue 02:31:06 PM 24.5250 54.6100 47° Northeast 259 298 3,700 1,440 Climbing FlightAware ADS-B
Tue 02:31:16 PM 24.5320 54.6210 55° Northeast 261 300 3,900 1,200 Climbing FlightAware ADS-B
Tue 02:31:21 PM 24.5350 54.6270 61° Northeast 270 311 4,000 1,200 Climbing FlightAware ADS-B
Tue 02:31:31 PM 24.5380 54.6410 77° East 288 331 4,200 1,600 Climbing FlightAware ADS-B
Tue 02:31:51 PM 24.5310 54.6700 105° East 295 339 4,800 1,950 Climbing FlightAware ADS-B
Tue 02:32:11 PM 24.5190 54.6970 116° Southeast 302 348 5,500 2,100 Climbing FlightAware ADS-B
Tue 02:32:31 PM 24.5050 54.7240 120° Southeast 303 349 6,200 2,057 Climbing FlightAware ADS-B
Tue 02:32:46 PM 24.4940 54.7430 122° Southeast 305 351 6,700 2,250 Climbing FlightAware ADS-B
Tue 02:33:11 PM 24.4760 54.7780 119° Southeast 305 351 7,700 2,267 Climbing FlightAware ADS-B
Tue 02:33:31 PM 24.4610 54.8060 120° Southeast 308 354 8,400 2,160 Climbing FlightAware ADS-B
Tue 02:33:36 PM 24.4580 54.8110 123° Southeast 309 356 8,600 2,200 Climbing FlightAware ADS-B
Tue 02:34:01 PM 24.4400 54.8460 119° Southeast 312 359 9,500 2,300 Climbing FlightAware ADS-B
Tue 02:34:36 PM 24.4140 54.8960 120° Southeast 312 359 10,900 1,629 Climbing FlightAware ADS-B
Tue 02:35:11 PM 24.3880 54.9460 120° Southeast 345 397 11,400 1,029 Climbing FlightAware ADS-B
Tue 02:35:46 PM 24.3590 55.0000 121° Southeast 367 422 12,100 1,760 Climbing FlightAware ADS-B
Tue 02:36:26 PM 24.3230 55.0690 120° Southeast 373 429 13,600 2,160 Climbing FlightAware ADS-B
Tue 02:37:01 PM 24.2930 55.1270 120° Southeast 378 435 14,800 2,031 Climbing FlightAware ADS-B
Tue 02:37:31 PM 24.2680 55.1750 120° Southeast 386 444 15,800 2,677 Climbing FlightAware ADS-B
Tue 02:38:06 PM 24.2360 55.2350 120° Southeast 367 422 17,700 2,560 Climbing FlightAware ADS-B
Tue 02:38:46 PM 24.2000 55.3020 120° Southeast 378 435 19,000 1,917 Climbing FlightAware ADS-B
Tue 02:39:18 PM 24.1720 55.3580 119° Southeast 382 440 20,000 1,217 Climbing FlightAware ADS-B
Tue 02:39:55 PM 24.1470 55.4240 113° Southeast 405 466 20,400 583 Climbing FlightAware ADS-B
Tue 02:40:30 PM 24.1200 55.4950 113° Southeast 428 493 20,700 423 Climbing FlightAware ADS-B
Tue 02:41:06 PM 24.0910 55.5700 113° Southeast 448 516 20,900 269 Climbing FlightAware ADS-B
Tue 02:41:37 PM 24.0670 55.6320 113° Southeast 457 526 21,000 1,367 Climbing FlightAware ADS-B
Tue 02:42:25 PM 24.0230 55.7270 117° Southeast 434 499 22,700 1,705 Climbing FlightAware ADS-B
Tue 02:43:05 PM 23.9860 55.8050 117° Southeast 441 507 23,500 1,125 Climbing FlightAware ADS-B
Tue 02:43:45 PM 23.9450 55.8900 118° Southeast 450 518 24,200 1,105 Climbing FlightAware ADS-B
Tue 02:44:21 PM 23.9100 55.9630 118° Southeast 454 522 24,900 692 Climbing FlightAware ADS-B
Tue 02:45:03 PM 23.8740 56.0400 117° Southeast 455 524 25,100 1,054 Climbing FlightAware ADS-B
Tue 02:45:35 PM 23.8370 56.1170 118° Southeast 463 533 26,200 1,083 Climbing FlightAware ADS-B
Tue 02:46:15 PM 23.8020 56.1910 117° Southeast 463 533 26,400 892 Climbing FlightAware ADS-B
Tue 02:46:49 PM 23.7650 56.2660 118° Southeast 471 542 27,300 1,313 Climbing FlightAware ADS-B
Tue 02:47:19 PM 23.7320 56.3350 118° Southeast 474 545 27,800 615 Climbing FlightAware ADS-B
Tue 02:48:07 PM 23.6880 56.4280 117° Southeast 475 547 28,100 214 Climbing FlightAware ADS-B
Tue 02:48:43 PM 23.6580 56.4930 117° Southeast 475 547 28,100  Level FlightAware ADS-B
Tue 02:49:19 PM 23.6270 56.5580 117° Southeast 475 547 28,100  Level FlightAware ADS-B
Tue 02:50:05 PM 23.5880 56.6420 117° Southeast 475 547 28,100  Level FlightAware ADS-B
Tue 02:50:41 PM 23.5570 56.7070 117° Southeast 475 547 28,100  Level FlightAware ADS-B
Tue 02:51:17 PM 23.5270 56.7730 116° Southeast 475 547 28,100 49 Level FlightAware ADS-B
Tue 02:53:00 PM 23.3983 56.9912 123° Southeast  Level Estimated
Tue 02:54:00 PM 23.3232 57.1182 123° Southeast  Level Estimated
Tue 02:55:00 PM 23.2480 57.2450 123° Southeast  Level Estimated
Tue 02:56:00 PM 23.1727 57.3716 123° Southeast  Level Estimated
Tue 02:57:00 PM 23.0973 57.4981 123° Southeast  Level Estimated
Tue 02:58:00 PM 23.0218 57.6245 123° Southeast  Level Estimated
Tue 02:59:00 PM 22.9462 57.7507 123° Southeast  Level Estimated
Tue 03:00:00 PM 22.8705 57.8768 123° Southeast  Level Estimated
Tue 03:01:00 PM 22.7947 58.0027 123° Southeast  Level Estimated
Tue 03:02:00 PM 22.7188 58.1285 123° Southeast  Level Estimated
Tue 03:03:00 PM 22.6428 58.2542 123° Southeast  Level Estimated
Tue 03:04:00 PM 22.5667 58.3797 123° Southeast  Level Estimated
Tue 03:05:00 PM 22.4905 58.5051 123° Southeast  Level Estimated
Tue 03:06:00 PM 22.4142 58.6303 123° Southeast  Level Estimated
Tue 03:07:00 PM 22.3379 58.7555 123° Southeast  Level Estimated
Tue 03:08:00 PM 22.2614 58.8804 123° Southeast  Level Estimated
Tue 03:09:00 PM 22.1848 59.0052 124° Southeast  Level Estimated
Tue 03:10:00 PM 22.1081 59.1300 124° Southeast  Level Estimated
Tue 03:11:00 PM 22.0313 59.2545 124° Southeast  Level Estimated
Tue 03:12:00 PM 21.9545 59.3789 124° Southeast  Level Estimated
Tue 03:13:00 PM 21.8775 59.5032 124° Southeast  Level Estimated
Tue 03:14:00 PM 21.8005 59.6274 124° Southeast  Level Estimated
Tue 03:15:00 PM 21.7233 59.7514 124° Southeast  Level Estimated
Tue 03:16:00 PM 21.6461 59.8753 124° Southeast  Level Estimated
Tue 03:17:00 PM 21.5688 59.9991 124° Southeast  Level Estimated
Tue 03:18:00 PM 21.5017 60.1062 124° Southeast  Level Estimated
Tue 03:19:00 PM 21.4346 60.2132 124° Southeast  Level Estimated
Tue 03:20:00 PM 21.3674 60.3201 124° Southeast  Level Estimated
Tue 03:21:00 PM 21.3001 60.4269 124° Southeast  Level Estimated
Tue 03:22:00 PM 21.2328 60.5337 124° Southeast  Level Estimated
Tue 03:23:00 PM 21.1654 60.6403 124° Southeast  Level Estimated
Tue 03:24:00 PM 21.0979 60.7468 124° Southeast  Level Estimated
Tue 03:25:00 PM 21.0303 60.8533 124° Southeast  Level Estimated
Tue 03:26:00 PM 20.9627 60.9596 124° Southeast  Level Estimated
Tue 03:27:00 PM 20.8951 61.0658 124° Southeast  Level Estimated
Tue 03:28:00 PM 20.8273 61.1720 124° Southeast  Level Estimated
Tue 03:29:00 PM 20.7595 61.2780 124° Southeast  Level Estimated
Tue 03:30:00 PM 20.6917 61.3840 124° Southeast  Level Estimated
Tue 03:31:00 PM 20.6237 61.4899 124° Southeast  Level Estimated
Tue 03:32:00 PM 20.5557 61.5956 124° Southeast  Level Estimated
Tue 03:33:00 PM 20.4877 61.7013 124° Southeast  Level Estimated
Tue 03:34:00 PM 20.4195 61.8069 125° Southeast  Level Estimated
Tue 03:35:00 PM 20.3514 61.9124 125° Southeast  Level Estimated
Tue 03:36:00 PM 20.2831 62.0177 125° Southeast  Level Estimated
Tue 03:37:00 PM 20.2148 62.1231 125° Southeast  Level Estimated
Tue 03:38:00 PM 20.1464 62.2283 125° Southeast  Level Estimated
Tue 03:39:00 PM 20.0780 62.3334 125° Southeast  Level Estimated
Tue 03:40:00 PM 20.0095 62.4384 125° Southeast  Level Estimated
Tue 03:41:00 PM 19.9409 62.5433 125° Southeast  Level Estimated
Tue 03:42:00 PM 19.8723 62.6482 125° Southeast  Level Estimated
Tue 03:43:00 PM 19.8036 62.7529 125° Southeast  Level Estimated
Tue 03:44:00 PM 19.7349 62.8576 125° Southeast  Level Estimated
Tue 03:45:00 PM 19.6660 62.9621 125° Southeast  Level Estimated
Tue 03:46:00 PM 19.5972 63.0666 125° Southeast  Level Estimated
Tue 03:47:00 PM 19.5282 63.1710 125° Southeast  Level Estimated
Tue 03:48:00 PM 19.4593 63.2753 125° Southeast  Level Estimated
Tue 03:49:00 PM 19.3902 63.3795 125° Southeast  Level Estimated
Tue 03:50:00 PM 19.3211 63.4836 125° Southeast  Level Estimated
Tue 03:51:00 PM 19.2519 63.5877 125° Southeast  Level Estimated
Tue 03:52:00 PM 19.1827 63.6916 125° Southeast  Level Estimated
Tue 03:53:00 PM 19.1134 63.7955 125° Southeast  Level Estimated
Tue 03:54:00 PM 19.0441 63.8993 125° Southeast  Level Estimated
Tue 03:55:00 PM 18.9747 64.0029 125° Southeast  Level Estimated
Tue 03:56:00 PM 18.9052 64.1065 125° Southeast  Level Estimated
Tue 03:57:00 PM 18.8357 64.2101 125° Southeast  Level Estimated
Tue 03:58:00 PM 18.7661 64.3135 125° Southeast  Level Estimated
Tue 03:59:00 PM 18.6965 64.4168 125° Southeast  Level Estimated
Tue 04:00:00 PM 18.6268 64.5201 125° Southeast  Level Estimated
Tue 04:01:00 PM 18.5571 64.6233 125° Southeast  Level Estimated
Tue 04:02:00 PM 18.4873 64.7263 126° Southeast  Level Estimated
Tue 04:03:00 PM 18.4174 64.8293 126° Southeast  Level Estimated
Tue 04:04:00 PM 18.3475 64.9323 126° Southeast  Level Estimated
Tue 04:05:00 PM 18.2776 65.0351 126° Southeast  Level Estimated
Tue 04:06:00 PM 18.2076 65.1378 126° Southeast  Level Estimated
Tue 04:07:00 PM 18.1375 65.2405 126° Southeast  Level Estimated
Tue 04:08:00 PM 18.0674 65.3431 126° Southeast  Level Estimated
Tue 04:09:00 PM 17.9972 65.4456 126° Southeast  Level Estimated
Tue 04:10:00 PM 17.9269 65.5480 126° Southeast  Level Estimated
Tue 04:11:00 PM 17.8566 65.6504 126° Southeast  Level Estimated
Tue 04:12:00 PM 17.7863 65.7526 126° Southeast  Level Estimated
Tue 04:13:00 PM 17.7159 65.8548 126° Southeast  Level Estimated
Tue 04:14:00 PM 17.6455 65.9569 126° Southeast  Level Estimated
Tue 04:15:00 PM 17.5750 66.0590 126° Southeast  Level Estimated
Tue 04:16:00 PM 17.5044 66.1609 126° Southeast  Level Estimated
Tue 04:17:00 PM 17.4338 66.2627 126° Southeast  Level Estimated
Tue 04:18:00 PM 17.3631 66.3645 126° Southeast  Level Estimated
Tue 04:19:00 PM 17.2924 66.4662 126° Southeast  Level Estimated
Tue 04:20:00 PM 17.2217 66.5679 126° Southeast  Level Estimated
Tue 04:21:00 PM 17.1509 66.6694 126° Southeast  Level Estimated
Tue 04:22:00 PM 17.0800 66.7709 126° Southeast  Level Estimated
Tue 04:23:00 PM 17.0091 66.8723 126° Southeast  Level Estimated
Tue 04:24:00 PM 16.9381 66.9736 126° Southeast  Level Estimated
Tue 04:25:00 PM 16.8671 67.0749 126° Southeast  Level Estimated
Tue 04:26:00 PM 16.7961 67.1760 126° Southeast  Level Estimated
Tue 04:27:00 PM 16.7250 67.2771 126° Southeast  Level Estimated
Tue 04:28:00 PM 16.6538 67.3781 126° Southeast  Level Estimated
Tue 04:29:00 PM 16.5826 67.4791 126° Southeast  Level Estimated
Tue 04:30:00 PM 16.5113 67.5799 126° Southeast  Level Estimated
Tue 04:31:00 PM 16.4400 67.6807 126° Southeast  Level Estimated
Tue 04:32:00 PM 16.3687 67.7815 126° Southeast  Level Estimated
Tue 04:33:00 PM 16.2973 67.8821 126° Southeast  Level Estimated
Tue 04:34:00 PM 16.2258 67.9827 126° Southeast  Level Estimated
Tue 04:35:00 PM 16.1543 68.0832 127° Southeast  Level Estimated
Tue 04:36:00 PM 16.0828 68.1836 127° Southeast  Level Estimated
Tue 04:37:00 PM 16.0112 68.2840 127° Southeast  Level Estimated
Tue 04:38:00 PM 15.9396 68.3842 127° Southeast  Level Estimated
Tue 04:39:00 PM 15.8679 68.4844 127° Southeast  Level Estimated
Tue 04:40:00 PM 15.7961 68.5846 127° Southeast  Level Estimated
Tue 04:41:00 PM 15.7244 68.6846 127° Southeast  Level Estimated
Tue 04:42:00 PM 15.6525 68.7847 127° Southeast  Level Estimated
Tue 04:43:00 PM 15.5807 68.8846 127° Southeast  Level Estimated
Tue 04:44:00 PM 15.5088 68.9844 127° Southeast  Level Estimated
Tue 04:45:00 PM 15.4368 69.0842 127° Southeast  Level Estimated
Tue 04:46:00 PM 15.3648 69.1840 127° Southeast  Level Estimated
Tue 04:47:00 PM 15.2928 69.2836 127° Southeast  Level Estimated
Tue 04:48:00 PM 15.2207 69.3832 127° Southeast  Level Estimated
Tue 04:49:00 PM 15.1486 69.4827 127° Southeast  Level Estimated
Tue 04:50:00 PM 15.0764 69.5821 127° Southeast  Level Estimated
Tue 04:51:00 PM 15.0042 69.6815 127° Southeast  Level Estimated
Tue 04:52:00 PM 14.9319 69.7808 127° Southeast  Level Estimated
Tue 04:53:00 PM 14.8596 69.8801 127° Southeast  Level Estimated
Tue 04:54:00 PM 14.7872 69.9792 127° Southeast  Level Estimated
Tue 04:55:00 PM 14.7148 70.0783 127° Southeast  Level Estimated
Tue 04:56:00 PM 14.6424 70.1774 127° Southeast  Level Estimated
Tue 04:57:00 PM 14.5699 70.2764 127° Southeast  Level Estimated
Tue 04:58:00 PM 14.4974 70.3753 127° Southeast  Level Estimated
Tue 04:59:00 PM 14.4249 70.4741 127° Southeast  Level Estimated
Tue 05:00:00 PM 14.3523 70.5729 127° Southeast  Level Estimated
Tue 05:01:00 PM 14.2796 70.6716 127° Southeast  Level Estimated
Tue 05:02:00 PM 14.2069 70.7703 127° Southeast  Level Estimated
Tue 05:03:00 PM 14.1342 70.8689 127° Southeast  Level Estimated
Tue 05:04:00 PM 14.0615 70.9674 127° Southeast  Level Estimated
Tue 05:05:00 PM 13.9887 71.0659 127° Southeast  Level Estimated
Tue 05:06:00 PM 13.9158 71.1643 127° Southeast  Level Estimated
Tue 05:07:00 PM 13.8429 71.2626 127° Southeast  Level Estimated
Tue 05:08:00 PM 13.7700 71.3609 127° Southeast  Level Estimated
Tue 05:09:00 PM 13.6971 71.4591 127° Southeast  Level Estimated
Tue 05:10:00 PM 13.6241 71.5573 127° Southeast  Level Estimated
Tue 05:11:00 PM 13.5510 71.6554 127° Southeast  Level Estimated
Tue 05:12:00 PM 13.4780 71.7534 127° Southeast  Level Estimated
Tue 05:13:00 PM 13.4049 71.8514 127° Southeast  Level Estimated
Tue 05:14:00 PM 13.3317 71.9493 128° Southeast  Level Estimated
Tue 05:15:00 PM 13.2585 72.0472 128° Southeast  Level Estimated
Tue 05:16:00 PM 13.1853 72.1450 128° Southeast  Level Estimated
Tue 05:17:00 PM 13.1120 72.2427 128° Southeast  Level Estimated
Tue 05:18:00 PM 13.0387 72.3404 128° Southeast  Level Estimated
Tue 05:19:00 PM 12.9654 72.4380 128° Southeast  Level Estimated
Tue 05:20:00 PM 12.8920 72.5356 128° Southeast  Level Estimated
Tue 05:21:00 PM 12.8186 72.6331 128° Southeast  Level Estimated
Tue 05:22:00 PM 12.7452 72.7306 128° Southeast  Level Estimated
Tue 05:23:00 PM 12.6717 72.8280 128° Southeast  Level Estimated
Tue 05:24:00 PM 12.5982 72.9253 128° Southeast  Level Estimated
Tue 05:25:00 PM 12.5246 73.0226 128° Southeast  Level Estimated
Tue 05:26:00 PM 12.4511 73.1199 128° Southeast  Level Estimated
Tue 05:27:00 PM 12.3774 73.2170 128° Southeast  Level Estimated
Tue 05:28:00 PM 12.3038 73.3141 128° Southeast  Level Estimated
Tue 05:29:00 PM 12.2301 73.4112 128° Southeast  Level Estimated
Tue 05:30:00 PM 12.1564 73.5082 128° Southeast  Level Estimated
Tue 05:31:00 PM 12.0826 73.6052 128° Southeast  Level Estimated
Tue 05:32:00 PM 12.0088 73.7021 128° Southeast  Level Estimated
Tue 05:33:00 PM 11.9350 73.7990 128° Southeast  Level Estimated
Tue 05:34:00 PM 11.8612 73.8958 128° Southeast  Level Estimated
Tue 05:35:00 PM 11.7873 73.9925 128° Southeast  Level Estimated
Tue 05:36:00 PM 11.7134 74.0892 128° Southeast  Level Estimated
Tue 05:37:00 PM 11.6394 74.1858 128° Southeast  Level Estimated
Tue 05:38:00 PM 11.5654 74.2824 128° Southeast  Level Estimated
Tue 05:39:00 PM 11.4914 74.3790 128° Southeast  Level Estimated
Tue 05:40:00 PM 11.4174 74.4755 128° Southeast  Level Estimated
Tue 05:41:00 PM 11.3433 74.5719 128° Southeast  Level Estimated
Tue 05:42:00 PM 11.2692 74.6683 128° Southeast  Level Estimated
Tue 05:43:00 PM 11.1950 74.7646 128° Southeast  Level Estimated
Tue 05:44:00 PM 11.1209 74.8609 128° Southeast  Level Estimated
Tue 05:45:00 PM 11.0467 74.9572 128° Southeast  Level Estimated
Tue 05:46:00 PM 10.9724 75.0534 128° Southeast  Level Estimated
Tue 05:47:00 PM 10.8982 75.1495 128° Southeast  Level Estimated
Tue 05:48:00 PM 10.8239 75.2456 128° Southeast  Level Estimated
Tue 05:49:00 PM 10.7496 75.3417 128° Southeast  Level Estimated
Tue 05:50:00 PM 10.6752 75.4377 128° Southeast  Level Estimated
Tue 05:51:00 PM 10.6008 75.5336 128° Southeast  Level Estimated
Tue 05:52:00 PM 10.5264 75.6295 128° Southeast  Level Estimated
Tue 05:52:18 PM 10.6210 75.7340 128° Southeast 434 499 37,000  Level FlightAware ADS-B
Tue 05:52:54 PM 10.5750 75.7910 129° Southeast 434 499 37,000  Level FlightAware ADS-B
Tue 05:53:00 PM 10.4520 75.7254 128° Southeast  Level Estimated
Tue 05:53:28 PM 10.5310 75.8450 130° Southeast 434 499 37,000  Level FlightAware ADS-B
Tue 05:54:04 PM 10.4860 75.9010 129° Southeast 434 499 37,000  Level FlightAware ADS-B
Tue 05:54:36 PM 10.4460 75.9510 129° Southeast 435 501 37,000  Level FlightAware ADS-B
Tue 05:55:14 PM 10.3960 76.0120 130° Southeast 435 501 37,000  Level FlightAware ADS-B
Tue 05:55:50 PM 10.3490 76.0710 129° Southeast 434 499 37,000  Level FlightAware ADS-B
Tue 05:56:24 PM 10.3080 76.1220 129° Southeast 433 498 37,000  Level FlightAware ADS-B
Tue 05:56:57 PM 10.2660 76.1740 129° Southeast 431 496 37,000  Level FlightAware ADS-B
Tue 05:57:33 PM 10.2200 76.2310 129° Southeast 429 494 37,000  Level FlightAware ADS-B
Tue 05:58:09 PM 10.1750 76.2870 129° Southeast 428 493 37,000  Level FlightAware ADS-B
Tue 05:58:41 PM 10.1330 76.3380 130° Southeast 429 494 37,000  Level FlightAware ADS-B
Tue 05:59:17 PM 10.0890 76.3920 130° Southeast 430 495 37,000  Level FlightAware ADS-B
Tue 05:59:55 PM 10.0410 76.4520 129° Southeast 431 496 37,000  Level FlightAware ADS-B
Tue 06:00:31 PM 9.9940 76.5090 130° Southeast 430 495 37,000  Level FlightAware ADS-B
Tue 06:01:03 PM 9.9540 76.5590 129° Southeast 429 494 37,000  Level FlightAware ADS-B
Tue 06:01:39 PM 9.9090 76.6140 130° Southeast 429 494 37,000  Level FlightAware ADS-B
Tue 06:02:24 PM 9.8570 76.6790 129° Southeast 429 494 37,000  Level FlightAware ADS-B
Tue 06:02:55 PM 9.8150 76.7300 130° Southeast 430 495 37,000  Level FlightAware ADS-B
Tue 06:03:30 PM 9.7690 76.7870 129° Southeast 429 494 37,000  Level FlightAware ADS-B
Tue 06:04:08 PM 9.7280 76.8370 130° Southeast 429 494 37,000  Level FlightAware ADS-B
Tue 06:04:44 PM 9.6900 76.8850 129° Southeast 429 494 37,000  Level FlightAware ADS-B
Tue 06:05:20 PM 9.6520 76.9330 129° Southeast 429 494 37,000  Level FlightAware ADS-B
Tue 06:05:56 PM 9.6140 76.9810 129° Southeast 429 494 37,000  Level FlightAware ADS-B
Tue 06:06:32 PM 9.5760 77.0290 129° Southeast 429 494 37,000  Level FlightAware ADS-B
Tue 06:07:08 PM 9.5370 77.0770 129° Southeast 429 494 37,000  Level FlightAware ADS-B
Tue 06:07:44 PM 9.4990 77.1250 129° Southeast 429 494 37,000  Level FlightAware ADS-B
Tue 06:08:20 PM 9.4610 77.1720 129° Southeast 429 494 37,000  Level FlightAware ADS-B
Tue 06:08:56 PM 9.4230 77.2200 129° Southeast 429 494 37,000  Level FlightAware ADS-B
Tue 06:09:33 PM 9.3830 77.2690 130° Southeast 429 494 37,000  Level FlightAware ADS-B
Tue 06:10:09 PM 9.3450 77.3170 129° Southeast 429 494 37,000  Level FlightAware ADS-B
Tue 06:10:46 PM 9.3060 77.3660 129° Southeast 429 494 37,000  Level FlightAware ADS-B
Tue 06:11:17 PM 9.2730 77.4080 129° Southeast 429 494 37,000  Level FlightAware ADS-B
Tue 06:11:54 PM 9.2340 77.4570 129° Southeast 429 494 37,000  Level FlightAware ADS-B
Tue 06:12:30 PM 9.1950 77.5050 129° Southeast 429 494 37,000  Level FlightAware ADS-B
Tue 06:13:06 PM 9.1570 77.5520 129° Southeast 429 494 37,000 -1,169 Level FlightAware ADS-B
Tue 06:15:00 PM 9.0084 77.7274 131° Southeast  Level Estimated
Tue 06:16:00 PM 8.9301 77.8196 131° Southeast  Level Estimated
Tue 06:17:00 PM 8.8519 77.9118 131° Southeast  Level Estimated
Tue 06:18:00 PM 8.7736 78.0040 131° Southeast  Level Estimated
Tue 06:19:00 PM 8.6953 78.0962 131° Southeast  Level Estimated
Tue 06:20:00 PM 8.6169 78.1882 131° Southeast  Level Estimated
Tue 06:21:00 PM 8.5386 78.2803 131° Southeast  Level Estimated
Tue 06:22:00 PM 8.4602 78.3723 131° Southeast  Level Estimated
Tue 06:23:00 PM 8.3818 78.4643 131° Southeast  Level Estimated
Tue 06:24:00 PM 8.3034 78.5563 131° Southeast  Level Estimated
Tue 06:25:00 PM 8.2249 78.6482 131° Southeast  Level Estimated
Tue 06:26:00 PM 8.1464 78.7400 131° Southeast  Level Estimated
Tue 06:27:00 PM 8.0679 78.8319 131° Southeast  Level Estimated
Tue 06:28:00 PM 7.9894 78.9237 131° Southeast  Level Estimated
Tue 06:29:00 PM 7.9109 79.0154 131° Southeast  Level Estimated
Tue 06:30:00 PM 7.8323 79.1072 131° Southeast  Level Estimated
Tue 06:31:00 PM 7.7538 79.1989 131° Southeast  Level Estimated
Tue 06:32:00 PM 7.6752 79.2905 131° Southeast  Level Estimated
Tue 06:33:00 PM 7.5966 79.3822 131° Southeast  Level Estimated
Tue 06:34:00 PM 7.5180 79.4737 131° Southeast  Level Estimated
Tue 06:34:24 PM 7.6180 79.4720 131° Southeast 313 360 11,400  Level FlightAware ADS-B
Tue 06:34:56 PM 7.6080 79.5170 103° East 306 352 10,700 -1,235 Descending FlightAware ADS-B
Tue 06:35:32 PM 7.5970 79.5660 103° East 299 344 10,000 -1,091 Descending FlightAware ADS-B
Tue 06:35:40 PM 7.5950 79.5780 100° East 298 343 9,900 -1,200 Descending FlightAware ADS-B
Tue 06:36:07 PM 7.5870 79.6130 103° East 297 342 9,300 -1,304 Descending FlightAware ADS-B
Tue 06:36:26 PM 7.5810 79.6400 103° East 296 341 8,900 -1,024 Descending FlightAware ADS-B
Tue 06:36:48 PM 7.5740 79.6690 104° East 292 336 8,600 -913 Descending FlightAware ADS-B
Tue 06:37:12 PM 7.5670 79.7010 102° East 290 334 8,200 -1,091 Descending FlightAware ADS-B
Tue 06:37:32 PM 7.5610 79.7270 103° East 289 333 7,800 -1,171 Descending FlightAware ADS-B
Tue 06:37:53 PM 7.5550 79.7540 103° East 288 331 7,400 -1,200 Descending FlightAware ADS-B
Tue 06:38:12 PM 7.5490 79.7790 104° East 287 330 7,000 -1,050 Descending FlightAware ADS-B
Tue 06:38:33 PM 7.5430 79.8060 103° East 284 327 6,700 -1,071 Descending FlightAware ADS-B
Tue 06:38:40 PM 7.5390 79.8160 112° Southeast 283 326 6,500 -1,071 Descending FlightAware ADS-B
Tue 06:39:01 PM 7.5260 79.8390 120° Southeast 282 325 6,200 -973 Descending FlightAware ADS-B
Tue 06:39:17 PM 7.5150 79.8570 122° Southeast 282 325 5,900 -1,111 Descending FlightAware ADS-B
Tue 06:39:28 PM 7.5040 79.8670 138° Southeast 282 325 5,700 -1,091 Descending FlightAware ADS-B
Tue 06:39:50 PM 7.4830 79.8870 137° Southeast 280 322 5,300 -1,091 Descending FlightAware ADS-B
Tue 06:40:12 PM 7.4620 79.9060 138° Southeast 276 318 4,900 -955 Descending FlightAware ADS-B
Tue 06:40:34 PM 7.4420 79.9250 137° Southeast 271 312 4,600 -789 Descending FlightAware ADS-B
Tue 06:40:50 PM 7.4270 79.9380 139° Southeast 258 297 4,400 -900 Descending FlightAware ADS-B
Tue 06:41:14 PM 7.4070 79.9570 137° Southeast 242 278 4,000 -1,250 Descending FlightAware ADS-B
Tue 06:41:38 PM 7.3880 79.9750 137° Southeast 241 277 3,400 -1,364 Descending FlightAware ADS-B
Tue 06:41:58 PM 7.3720 79.9910 135° Southeast 227 261 3,000 -1,161 Descending FlightAware ADS-B
Tue 06:42:09 PM 7.3640 79.9980 139° Southeast 213 245 2,800 -632 Descending FlightAware ADS-B
Tue 06:42:17 PM 7.3570 80.0010 157° South 202 232 2,800 -353 Level FlightAware ADS-B
Tue 06:42:26 PM 7.3490 80.0020 173° South 193 222 2,700 -621 Descending FlightAware ADS-B
Tue 06:42:46 PM 7.3310 79.9980 192° South 179 206 2,500 -571 Descending FlightAware ADS-B
Tue 06:43:08 PM 7.3170 79.9880 215° Southwest 172 198 2,300 -429 Descending FlightAware ADS-B
Tue 06:43:28 PM 7.3050 79.9790 217° Southwest 160 184 2,200 -150 Descending FlightAware ADS-B
Tue 06:43:48 PM 7.2940 79.9700 219° Southwest 153 176 2,200  Level FlightAware ADS-B
Tue 06:44:04 PM 7.2840 79.9630 215° Southwest 157 181 2,200 -167 Level FlightAware ADS-B
Tue 06:44:24 PM 7.2720 79.9540 217° Southwest 156 180 2,100 -450 Descending FlightAware ADS-B
Tue 06:44:44 PM 7.2620 79.9460 218° Southwest 153 176 1,900 -857 Descending FlightAware ADS-B
Tue 06:45:06 PM 7.2500 79.9360 220° Southwest 140 161 1,500 -947 Descending FlightAware ADS-B
Tue 06:45:22 PM 7.2410 79.9300 213° Southwest 133 153 1,300 -667 Descending FlightAware ADS-B
Tue 06:45:42 PM 7.2320 79.9220 221° Southwest 132 152 1,100 -667 Descending FlightAware ADS-B
Tue 06:45:58 PM 7.2240 79.9170 212° Southwest 132 152 900 -293 Descending FlightAware ADS-B
Tue 06:46:23 PM 7.2140 79.9090 218° Southwest 132 152 900  Level FlightAware ADS-B
Tue 06:49:00 PM 7.1809 79.8658 232° Southwest  Level Estimated
Tue 06:50:00 PM 7.1809 79.8658 71° East  Level Estimated
Tue 06:51:00 PM 7.1809 79.8658 71° East  Level Estimated

Login

Don't have an account? Register now (free) for customized features, flight alerts, and more!